sensor_id;sensor_type;location;lat;lon;timestamp;P1;durP1;ratioP1;P2;durP2;ratioP2
69706;SDS011;56975;55.726;37.566;2023-07-13T00:00:00;2.3;;;1.6;;
69706;SDS011;56975;55.726;37.566;2023-07-13T00:05:00;6.4;;;2.8;;
69706;SDS011;56975;55.726;37.566;2023-07-13T00:10:00;3.6;;;1.9;;
69706;SDS011;56975;55.726;37.566;2023-07-13T00:15:04;3.8;;;2.0;;
69706;SDS011;56975;55.726;37.566;2023-07-13T00:20:00;7.1;;;2.5;;
69706;SDS011;56975;55.726;37.566;2023-07-13T00:25:00;4.6;;;2.4;;
69706;SDS011;56975;55.726;37.566;2023-07-13T00:30:00;5.2;;;2.2;;
69706;SDS011;56975;55.726;37.566;2023-07-13T00:35:00;5.3;;;2.4;;
69706;SDS011;56975;55.726;37.566;2023-07-13T00:40:00;5.3;;;2.8;;
69706;SDS011;56975;55.726;37.566;2023-07-13T00:45:00;4.7;;;2.5;;
69706;SDS011;56975;55.726;37.566;2023-07-13T00:50:00;3.3;;;2.4;;
69706;SDS011;56975;55.726;37.566;2023-07-13T00:55:00;5.3;;;2.8;;
69706;SDS011;56975;55.726;37.566;2023-07-13T01:00:01;4.3;;;2.4;;
69706;SDS011;56975;55.726;37.566;2023-07-13T01:05:00;5.0;;;2.5;;
69706;SDS011;56975;55.726;37.566;2023-07-13T01:10:00;3.7;;;2.2;;
69706;SDS011;56975;55.726;37.566;2023-07-13T01:15:01;4.2;;;2.2;;
69706;SDS011;56975;55.726;37.566;2023-07-13T01:20:00;3.8;;;2.5;;
69706;SDS011;56975;55.726;37.566;2023-07-13T01:25:00;4.2;;;2.3;;
69706;SDS011;56975;55.726;37.566;2023-07-13T01:30:00;5.1;;;2.2;;
69706;SDS011;56975;55.726;37.566;2023-07-13T01:35:00;6.4;;;2.5;;
69706;SDS011;56975;55.726;37.566;2023-07-13T01:40:00;4.6;;;2.4;;
69706;SDS011;56975;55.726;37.566;2023-07-13T01:45:00;5.7;;;2.7;;
69706;SDS011;56975;55.726;37.566;2023-07-13T01:50:00;5.3;;;2.4;;
69706;SDS011;56975;55.726;37.566;2023-07-13T01:55:00;6.1;;;2.5;;
69706;SDS011;56975;55.726;37.566;2023-07-13T02:00:01;4.7;;;2.5;;
69706;SDS011;56975;55.726;37.566;2023-07-13T02:05:00;4.3;;;2.1;;
69706;SDS011;56975;55.726;37.566;2023-07-13T02:10:00;5.0;;;2.9;;
69706;SDS011;56975;55.726;37.566;2023-07-13T02:15:00;7.5;;;2.7;;
69706;SDS011;56975;55.726;37.566;2023-07-13T02:20:00;5.4;;;2.4;;
69706;SDS011;56975;55.726;37.566;2023-07-13T02:25:00;5.3;;;2.2;;
69706;SDS011;56975;55.726;37.566;2023-07-13T02:30:00;6.0;;;2.5;;
69706;SDS011;56975;55.726;37.566;2023-07-13T02:35:00;6.1;;;2.8;;
69706;SDS011;56975;55.726;37.566;2023-07-13T02:40:00;7.5;;;3.3;;
69706;SDS011;56975;55.726;37.566;2023-07-13T02:45:00;6.3;;;3.2;;
69706;SDS011;56975;55.726;37.566;2023-07-13T02:50:00;5.9;;;2.8;;
69706;SDS011;56975;55.726;37.566;2023-07-13T02:55:00;4.5;;;2.7;;
69706;SDS011;56975;55.726;37.566;2023-07-13T03:00:00;5.7;;;2.5;;
69706;SDS011;56975;55.726;37.566;2023-07-13T03:05:00;4.2;;;2.5;;
69706;SDS011;56975;55.726;37.566;2023-07-13T03:10:00;5.2;;;2.6;;
69706;SDS011;56975;55.726;37.566;2023-07-13T03:15:00;6.1;;;2.7;;
69706;SDS011;56975;55.726;37.566;2023-07-13T03:20:00;3.9;;;2.8;;
69706;SDS011;56975;55.726;37.566;2023-07-13T03:25:00;9.0;;;3.9;;
69706;SDS011;56975;55.726;37.566;2023-07-13T03:30:00;6.4;;;2.8;;
69706;SDS011;56975;55.726;37.566;2023-07-13T03:35:00;6.5;;;2.7;;
69706;SDS011;56975;55.726;37.566;2023-07-13T03:40:00;6.3;;;3.4;;
69706;SDS011;56975;55.726;37.566;2023-07-13T03:45:00;6.2;;;3.0;;
69706;SDS011;56975;55.726;37.566;2023-07-13T03:50:00;8.7;;;3.1;;
69706;SDS011;56975;55.726;37.566;2023-07-13T03:55:00;7.4;;;3.2;;
69706;SDS011;56975;55.726;37.566;2023-07-13T04:00:00;5.7;;;2.9;;
69706;SDS011;56975;55.726;37.566;2023-07-13T04:05:00;9.6;;;3.3;;
69706;SDS011;56975;55.726;37.566;2023-07-13T04:10:00;5.8;;;3.0;;
69706;SDS011;56975;55.726;37.566;2023-07-13T04:15:00;12.6;;;3.7;;
69706;SDS011;56975;55.726;37.566;2023-07-13T04:20:00;7.3;;;2.9;;
69706;SDS011;56975;55.726;37.566;2023-07-13T04:25:00;5.6;;;2.9;;
69706;SDS011;56975;55.726;37.566;2023-07-13T04:30:00;7.8;;;3.0;;
69706;SDS011;56975;55.726;37.566;2023-07-13T04:35:00;8.2;;;3.4;;
69706;SDS011;56975;55.726;37.566;2023-07-13T04:40:00;3.9;;;2.3;;
69706;SDS011;56975;55.726;37.566;2023-07-13T04:45:00;6.6;;;2.5;;
69706;SDS011;56975;55.726;37.566;2023-07-13T04:50:00;7.3;;;3.7;;
69706;SDS011;56975;55.726;37.566;2023-07-13T04:55:00;6.4;;;2.4;;
69706;SDS011;56975;55.726;37.566;2023-07-13T05:00:00;4.7;;;2.6;;
69706;SDS011;56975;55.726;37.566;2023-07-13T05:05:00;6.5;;;2.5;;
69706;SDS011;56975;55.726;37.566;2023-07-13T05:10:00;4.9;;;2.2;;
69706;SDS011;56975;55.726;37.566;2023-07-13T05:15:00;5.8;;;2.7;;
69706;SDS011;56975;55.726;37.566;2023-07-13T05:20:00;8.8;;;2.6;;
69706;SDS011;56975;55.726;37.566;2023-07-13T05:25:00;4.2;;;2.4;;
69706;SDS011;56975;55.726;37.566;2023-07-13T05:30:00;4.6;;;2.3;;
69706;SDS011;56975;55.726;37.566;2023-07-13T05:35:00;3.1;;;2.0;;
69706;SDS011;56975;55.726;37.566;2023-07-13T05:40:00;7.7;;;3.0;;
69706;SDS011;56975;55.726;37.566;2023-07-13T05:45:00;6.6;;;2.9;;
69706;SDS011;56975;55.726;37.566;2023-07-13T05:50:00;6.5;;;2.5;;
69706;SDS011;56975;55.726;37.566;2023-07-13T05:55:00;4.8;;;2.6;;
69706;SDS011;56975;55.726;37.566;2023-07-13T06:00:00;12.0;;;3.1;;
69706;SDS011;56975;55.726;37.566;2023-07-13T06:05:00;5.4;;;2.5;;
69706;SDS011;56975;55.726;37.566;2023-07-13T06:10:00;7.5;;;2.4;;
69706;SDS011;56975;55.726;37.566;2023-07-13T06:15:00;7.5;;;2.6;;
69706;SDS011;56975;55.726;37.566;2023-07-13T06:20:00;5.9;;;2.7;;
69706;SDS011;56975;55.726;37.566;2023-07-13T06:25:00;4.5;;;2.1;;
69706;SDS011;56975;55.726;37.566;2023-07-13T06:30:00;5.7;;;2.3;;
69706;SDS011;56975;55.726;37.566;2023-07-13T06:35:00;9.1;;;2.4;;
69706;SDS011;56975;55.726;37.566;2023-07-13T06:40:00;6.6;;;2.5;;
69706;SDS011;56975;55.726;37.566;2023-07-13T06:45:00;7.5;;;2.3;;
69706;SDS011;56975;55.726;37.566;2023-07-13T06:50:00;5.7;;;2.1;;
69706;SDS011;56975;55.726;37.566;2023-07-13T06:55:00;6.4;;;2.2;;
69706;SDS011;56975;55.726;37.566;2023-07-13T07:00:00;8.9;;;2.3;;
69706;SDS011;56975;55.726;37.566;2023-07-13T07:05:00;6.4;;;2.5;;
69706;SDS011;56975;55.726;37.566;2023-07-13T07:10:00;7.8;;;2.1;;
69706;SDS011;56975;55.726;37.566;2023-07-13T07:15:00;7.1;;;2.3;;
69706;SDS011;56975;55.726;37.566;2023-07-13T07:20:00;6.3;;;2.6;;
69706;SDS011;56975;55.726;37.566;2023-07-13T07:25:00;7.5;;;2.2;;
69706;SDS011;56975;55.726;37.566;2023-07-13T07:30:00;6.3;;;2.2;;
69706;SDS011;56975;55.726;37.566;2023-07-13T07:35:00;7.0;;;2.1;;
69706;SDS011;56975;55.726;37.566;2023-07-13T07:40:00;10.0;;;2.2;;
69706;SDS011;56975;55.726;37.566;2023-07-13T07:45:00;4.1;;;1.7;;
69706;SDS011;56975;55.726;37.566;2023-07-13T07:50:00;6.0;;;2.1;;
69706;SDS011;56975;55.726;37.566;2023-07-13T07:55:00;5.4;;;2.5;;
69706;SDS011;56975;55.726;37.566;2023-07-13T08:00:00;10.7;;;2.6;;
69706;SDS011;56975;55.726;37.566;2023-07-13T08:05:00;12.9;;;2.8;;
69706;SDS011;56975;55.726;37.566;2023-07-13T08:10:00;8.2;;;2.3;;
69706;SDS011;56975;55.726;37.566;2023-07-13T08:15:00;6.6;;;2.6;;
69706;SDS011;56975;55.726;37.566;2023-07-13T08:20:00;5.0;;;2.1;;
69706;SDS011;56975;55.726;37.566;2023-07-13T08:25:00;6.3;;;2.3;;
69706;SDS011;56975;55.726;37.566;2023-07-13T08:30:00;7.9;;;3.5;;
69706;SDS011;56975;55.726;37.566;2023-07-13T08:35:00;3.9;;;2.3;;
69706;SDS011;56975;55.726;37.566;2023-07-13T08:40:00;11.9;;;3.2;;
69706;SDS011;56975;55.726;37.566;2023-07-13T08:45:04;5.2;;;2.6;;
69706;SDS011;56975;55.726;37.566;2023-07-13T08:50:00;9.2;;;2.9;;
69706;SDS011;56975;55.726;37.566;2023-07-13T08:55:02;11.4;;;3.3;;
69706;SDS011;56975;55.726;37.566;2023-07-13T09:00:00;6.1;;;2.6;;
69706;SDS011;56975;55.726;37.566;2023-07-13T09:05:01;11.8;;;3.2;;
69706;SDS011;56975;55.726;37.566;2023-07-13T09:10:03;6.5;;;3.3;;
69706;SDS011;56975;55.726;37.566;2023-07-13T09:15:00;9.3;;;3.7;;
69706;SDS011;56975;55.726;37.566;2023-07-13T09:20:00;7.5;;;3.0;;
69706;SDS011;56975;55.726;37.566;2023-07-13T09:25:02;4.6;;;2.8;;
69706;SDS011;56975;55.726;37.566;2023-07-13T09:30:02;7.7;;;2.9;;
69706;SDS011;56975;55.726;37.566;2023-07-13T09:35:00;10.3;;;3.5;;
69706;SDS011;56975;55.726;37.566;2023-07-13T09:40:00;7.9;;;3.9;;
69706;SDS011;56975;55.726;37.566;2023-07-13T09:45:00;9.2;;;4.4;;
69706;SDS011;56975;55.726;37.566;2023-07-13T09:50:00;10.0;;;3.9;;
69706;SDS011;56975;55.726;37.566;2023-07-13T09:55:00;8.4;;;4.2;;
69706;SDS011;56975;55.726;37.566;2023-07-13T10:00:00;6.7;;;3.5;;
69706;SDS011;56975;55.726;37.566;2023-07-13T10:05:00;9.5;;;4.0;;
69706;SDS011;56975;55.726;37.566;2023-07-13T10:10:00;8.3;;;3.9;;
69706;SDS011;56975;55.726;37.566;2023-07-13T10:15:00;10.9;;;4.4;;
69706;SDS011;56975;55.726;37.566;2023-07-13T10:20:01;6.1;;;3.6;;
69706;SDS011;56975;55.726;37.566;2023-07-13T10:25:00;7.6;;;3.5;;
69706;SDS011;56975;55.726;37.566;2023-07-13T10:30:01;11.0;;;4.1;;
69706;SDS011;56975;55.726;37.566;2023-07-13T10:35:00;6.6;;;2.9;;
69706;SDS011;56975;55.726;37.566;2023-07-13T10:40:00;5.5;;;2.3;;
69706;SDS011;56975;55.726;37.566;2023-07-13T10:45:00;4.8;;;2.9;;
69706;SDS011;56975;55.726;37.566;2023-07-13T10:50:00;9.8;;;3.8;;
69706;SDS011;56975;55.726;37.566;2023-07-13T10:55:00;7.3;;;3.4;;
69706;SDS011;56975;55.726;37.566;2023-07-13T11:10:03;7.3;;;3.8;;
69706;SDS011;56975;55.726;37.566;2023-07-13T11:15:02;9.4;;;4.5;;
69706;SDS011;56975;55.726;37.566;2023-07-13T11:20:09;8.5;;;4.1;;
69706;SDS011;56975;55.726;37.566;2023-07-13T11:25:01;11.3;;;5.2;;
69706;SDS011;56975;55.726;37.566;2023-07-13T11:35:00;10.1;;;4.9;;
69706;SDS011;56975;55.726;37.566;2023-07-13T11:40:00;8.8;;;3.4;;
69706;SDS011;56975;55.726;37.566;2023-07-13T11:45:00;7.5;;;3.3;;
69706;SDS011;56975;55.726;37.566;2023-07-13T11:50:00;11.6;;;4.1;;
69706;SDS011;56975;55.726;37.566;2023-07-13T11:55:00;11.3;;;3.6;;
69706;SDS011;56975;55.726;37.566;2023-07-13T12:00:00;8.5;;;3.9;;
69706;SDS011;56975;55.726;37.566;2023-07-13T12:05:00;11.9;;;4.1;;
69706;SDS011;56975;55.726;37.566;2023-07-13T12:10:00;11.8;;;4.3;;
69706;SDS011;56975;55.726;37.566;2023-07-13T12:15:00;7.2;;;4.3;;
69706;SDS011;56975;55.726;37.566;2023-07-13T12:20:00;7.4;;;3.0;;
69706;SDS011;56975;55.726;37.566;2023-07-13T12:25:00;10.6;;;4.0;;
69706;SDS011;56975;55.726;37.566;2023-07-13T12:30:04;8.7;;;4.0;;
69706;SDS011;56975;55.726;37.566;2023-07-13T12:35:06;12.0;;;4.1;;
69706;SDS011;56975;55.726;37.566;2023-07-13T12:40:00;7.1;;;3.9;;
69706;SDS011;56975;55.726;37.566;2023-07-13T12:45:01;6.6;;;3.4;;
69706;SDS011;56975;55.726;37.566;2023-07-13T12:50:03;10.7;;;3.5;;
69706;SDS011;56975;55.726;37.566;2023-07-13T12:55:03;13.5;;;4.6;;
69706;SDS011;56975;55.726;37.566;2023-07-13T13:00:03;10.0;;;4.1;;
69706;SDS011;56975;55.726;37.566;2023-07-13T13:05:00;8.7;;;3.9;;
69706;SDS011;56975;55.726;37.566;2023-07-13T13:10:00;9.2;;;4.6;;
69706;SDS011;56975;55.726;37.566;2023-07-13T13:15:00;17.9;;;5.0;;
69706;SDS011;56975;55.726;37.566;2023-07-13T13:20:00;6.4;;;3.5;;
69706;SDS011;56975;55.726;37.566;2023-07-13T13:25:00;7.7;;;3.6;;
69706;SDS011;56975;55.726;37.566;2023-07-13T13:30:00;15.4;;;4.5;;
69706;SDS011;56975;55.726;37.566;2023-07-13T13:35:00;13.5;;;4.2;;
69706;SDS011;56975;55.726;37.566;2023-07-13T13:40:00;9.1;;;3.0;;
69706;SDS011;56975;55.726;37.566;2023-07-13T13:45:00;8.9;;;3.4;;
69706;SDS011;56975;55.726;37.566;2023-07-13T13:50:00;10.0;;;4.1;;
69706;SDS011;56975;55.726;37.566;2023-07-13T13:55:00;7.7;;;3.7;;
69706;SDS011;56975;55.726;37.566;2023-07-13T14:00:00;9.4;;;4.4;;
69706;SDS011;56975;55.726;37.566;2023-07-13T14:05:01;11.3;;;4.0;;
69706;SDS011;56975;55.726;37.566;2023-07-13T14:10:00;11.2;;;4.9;;
69706;SDS011;56975;55.726;37.566;2023-07-13T14:15:00;13.2;;;5.3;;
69706;SDS011;56975;55.726;37.566;2023-07-13T14:20:00;10.0;;;4.5;;
69706;SDS011;56975;55.726;37.566;2023-07-13T14:25:00;9.6;;;4.4;;
69706;SDS011;56975;55.726;37.566;2023-07-13T14:30:00;9.9;;;4.2;;
69706;SDS011;56975;55.726;37.566;2023-07-13T14:35:00;7.4;;;4.3;;
69706;SDS011;56975;55.726;37.566;2023-07-13T14:40:00;10.8;;;3.8;;
69706;SDS011;56975;55.726;37.566;2023-07-13T14:45:00;10.6;;;5.0;;
69706;SDS011;56975;55.726;37.566;2023-07-13T14:50:00;13.4;;;4.8;;
69706;SDS011;56975;55.726;37.566;2023-07-13T14:55:00;11.3;;;3.8;;
69706;SDS011;56975;55.726;37.566;2023-07-13T15:00:00;11.8;;;4.7;;
69706;SDS011;56975;55.726;37.566;2023-07-13T15:05:00;9.0;;;4.9;;
69706;SDS011;56975;55.726;37.566;2023-07-13T15:10:00;11.3;;;5.1;;
69706;SDS011;56975;55.726;37.566;2023-07-13T15:15:00;10.4;;;4.8;;
69706;SDS011;56975;55.726;37.566;2023-07-13T15:20:00;10.2;;;4.2;;
69706;SDS011;56975;55.726;37.566;2023-07-13T15:25:00;12.6;;;4.4;;
69706;SDS011;56975;55.726;37.566;2023-07-13T15:30:00;8.6;;;4.6;;
69706;SDS011;56975;55.726;37.566;2023-07-13T15:35:00;10.4;;;4.4;;
69706;SDS011;56975;55.726;37.566;2023-07-13T15:40:00;12.0;;;4.6;;
69706;SDS011;56975;55.726;37.566;2023-07-13T15:45:00;8.7;;;5.0;;
69706;SDS011;56975;55.726;37.566;2023-07-13T15:50:00;9.3;;;4.9;;
69706;SDS011;56975;55.726;37.566;2023-07-13T15:55:00;9.8;;;5.3;;
69706;SDS011;56975;55.726;37.566;2023-07-13T16:00:00;9.5;;;5.7;;
69706;SDS011;56975;55.726;37.566;2023-07-13T16:05:00;11.7;;;4.9;;
69706;SDS011;56975;55.726;37.566;2023-07-13T16:10:00;11.0;;;4.9;;
69706;SDS011;56975;55.726;37.566;2023-07-13T16:15:00;8.6;;;5.5;;
69706;SDS011;56975;55.726;37.566;2023-07-13T16:20:00;10.9;;;5.1;;
69706;SDS011;56975;55.726;37.566;2023-07-13T16:25:00;15.6;;;6.5;;
69706;SDS011;56975;55.726;37.566;2023-07-13T16:30:00;13.8;;;5.8;;
69706;SDS011;56975;55.726;37.566;2023-07-13T16:35:00;12.8;;;5.8;;
69706;SDS011;56975;55.726;37.566;2023-07-13T16:40:00;10.6;;;5.4;;
69706;SDS011;56975;55.726;37.566;2023-07-13T16:45:00;12.8;;;6.4;;
69706;SDS011;56975;55.726;37.566;2023-07-13T16:50:00;11.1;;;5.4;;
69706;SDS011;56975;55.726;37.566;2023-07-13T16:55:00;15.1;;;7.3;;
69706;SDS011;56975;55.726;37.566;2023-07-13T17:00:00;13.7;;;6.5;;
69706;SDS011;56975;55.726;37.566;2023-07-13T17:05:00;11.6;;;6.2;;
69706;SDS011;56975;55.726;37.566;2023-07-13T17:10:00;13.0;;;6.2;;
69706;SDS011;56975;55.726;37.566;2023-07-13T17:15:00;10.5;;;5.2;;
69706;SDS011;56975;55.726;37.566;2023-07-13T17:20:00;12.8;;;6.5;;
69706;SDS011;56975;55.726;37.566;2023-07-13T17:25:00;13.3;;;6.9;;
69706;SDS011;56975;55.726;37.566;2023-07-13T17:30:00;18.7;;;7.7;;
69706;SDS011;56975;55.726;37.566;2023-07-13T17:35:16;15.9;;;7.0;;
69706;SDS011;56975;55.726;37.566;2023-07-13T17:40:00;13.7;;;7.9;;
69706;SDS011;56975;55.726;37.566;2023-07-13T17:45:00;14.3;;;6.6;;
69706;SDS011;56975;55.726;37.566;2023-07-13T17:50:00;18.6;;;8.9;;
69706;SDS011;56975;55.726;37.566;2023-07-13T17:55:00;12.8;;;7.6;;
69706;SDS011;56975;55.726;37.566;2023-07-13T18:00:00;13.0;;;6.2;;
69706;SDS011;56975;55.726;37.566;2023-07-13T18:05:00;15.2;;;7.6;;
69706;SDS011;56975;55.726;37.566;2023-07-13T18:10:00;13.3;;;6.9;;
69706;SDS011;56975;55.726;37.566;2023-07-13T18:15:00;9.8;;;5.8;;
69706;SDS011;56975;55.726;37.566;2023-07-13T18:20:00;14.6;;;7.8;;
69706;SDS011;56975;55.726;37.566;2023-07-13T18:25:00;15.0;;;7.4;;
69706;SDS011;56975;55.726;37.566;2023-07-13T18:30:00;13.5;;;7.1;;
69706;SDS011;56975;55.726;37.566;2023-07-13T18:35:00;15.9;;;7.0;;
69706;SDS011;56975;55.726;37.566;2023-07-13T18:40:00;12.7;;;7.1;;
69706;SDS011;56975;55.726;37.566;2023-07-13T18:45:00;15.2;;;7.0;;
69706;SDS011;56975;55.726;37.566;2023-07-13T18:50:00;13.0;;;7.2;;
69706;SDS011;56975;55.726;37.566;2023-07-13T18:55:00;17.9;;;7.6;;
69706;SDS011;56975;55.726;37.566;2023-07-13T19:00:00;12.5;;;6.9;;
69706;SDS011;56975;55.726;37.566;2023-07-13T19:05:00;13.2;;;6.4;;
69706;SDS011;56975;55.726;37.566;2023-07-13T19:10:00;11.9;;;6.7;;
69706;SDS011;56975;55.726;37.566;2023-07-13T19:15:00;11.5;;;7.4;;
69706;SDS011;56975;55.726;37.566;2023-07-13T19:20:00;15.2;;;7.8;;
69706;SDS011;56975;55.726;37.566;2023-07-13T19:25:00;12.9;;;6.9;;
69706;SDS011;56975;55.726;37.566;2023-07-13T19:30:00;12.4;;;6.9;;
69706;SDS011;56975;55.726;37.566;2023-07-13T19:35:00;12.2;;;7.2;;
69706;SDS011;56975;55.726;37.566;2023-07-13T19:40:00;10.2;;;6.6;;
69706;SDS011;56975;55.726;37.566;2023-07-13T19:45:00;12.4;;;6.1;;
69706;SDS011;56975;55.726;37.566;2023-07-13T19:50:00;15.2;;;7.0;;
69706;SDS011;56975;55.726;37.566;2023-07-13T19:55:00;11.0;;;6.1;;
69706;SDS011;56975;55.726;37.566;2023-07-13T20:00:00;10.9;;;5.6;;
69706;SDS011;56975;55.726;37.566;2023-07-13T20:05:00;11.7;;;6.2;;
69706;SDS011;56975;55.726;37.566;2023-07-13T20:10:00;12.2;;;6.2;;
69706;SDS011;56975;55.726;37.566;2023-07-13T20:15:00;11.2;;;6.0;;
69706;SDS011;56975;55.726;37.566;2023-07-13T20:20:00;8.3;;;4.8;;
69706;SDS011;56975;55.726;37.566;2023-07-13T20:25:00;7.7;;;4.4;;
69706;SDS011;56975;55.726;37.566;2023-07-13T20:30:00;10.2;;;5.3;;
69706;SDS011;56975;55.726;37.566;2023-07-13T20:35:00;9.2;;;5.6;;
69706;SDS011;56975;55.726;37.566;2023-07-13T20:40:00;10.5;;;4.6;;
69706;SDS011;56975;55.726;37.566;2023-07-13T20:45:00;8.4;;;5.4;;
69706;SDS011;56975;55.726;37.566;2023-07-13T20:50:00;8.6;;;5.1;;
69706;SDS011;56975;55.726;37.566;2023-07-13T20:55:00;10.4;;;5.1;;
69706;SDS011;56975;55.726;37.566;2023-07-13T21:00:00;9.2;;;5.1;;
69706;SDS011;56975;55.726;37.566;2023-07-13T21:05:08;11.1;;;5.3;;
69706;SDS011;56975;55.726;37.566;2023-07-13T21:10:00;10.4;;;5.6;;
69706;SDS011;56975;55.726;37.566;2023-07-13T21:15:00;11.8;;;7.0;;
69706;SDS011;56975;55.726;37.566;2023-07-13T21:20:00;11.0;;;5.9;;
69706;SDS011;56975;55.726;37.566;2023-07-13T21:25:00;12.7;;;5.8;;
69706;SDS011;56975;55.726;37.566;2023-07-13T21:30:00;7.3;;;4.5;;
69706;SDS011;56975;55.726;37.566;2023-07-13T21:35:00;6.0;;;4.0;;
69706;SDS011;56975;55.726;37.566;2023-07-13T21:40:00;7.7;;;3.6;;
69706;SDS011;56975;55.726;37.566;2023-07-13T21:45:00;5.2;;;3.3;;
69706;SDS011;56975;55.726;37.566;2023-07-13T21:50:00;6.4;;;4.3;;
69706;SDS011;56975;55.726;37.566;2023-07-13T21:55:00;7.6;;;4.1;;
69706;SDS011;56975;55.726;37.566;2023-07-13T22:00:00;8.9;;;4.8;;
69706;SDS011;56975;55.726;37.566;2023-07-13T22:05:00;7.8;;;4.3;;
69706;SDS011;56975;55.726;37.566;2023-07-13T22:10:00;8.3;;;5.0;;
69706;SDS011;56975;55.726;37.566;2023-07-13T22:15:00;10.9;;;5.0;;
69706;SDS011;56975;55.726;37.566;2023-07-13T22:20:00;8.7;;;5.6;;
69706;SDS011;56975;55.726;37.566;2023-07-13T22:25:00;10.0;;;5.9;;
69706;SDS011;56975;55.726;37.566;2023-07-13T22:30:00;7.2;;;4.9;;
69706;SDS011;56975;55.726;37.566;2023-07-13T22:35:00;10.2;;;5.2;;
69706;SDS011;56975;55.726;37.566;2023-07-13T22:40:00;8.0;;;4.9;;
69706;SDS011;56975;55.726;37.566;2023-07-13T22:45:00;8.4;;;5.0;;
69706;SDS011;56975;55.726;37.566;2023-07-13T22:50:00;8.1;;;5.0;;
69706;SDS011;56975;55.726;37.566;2023-07-13T22:55:00;8.5;;;4.9;;
69706;SDS011;56975;55.726;37.566;2023-07-13T23:00:00;8.5;;;4.8;;
69706;SDS011;56975;55.726;37.566;2023-07-13T23:05:00;9.7;;;5.3;;
69706;SDS011;56975;55.726;37.566;2023-07-13T23:10:00;7.8;;;4.9;;
69706;SDS011;56975;55.726;37.566;2023-07-13T23:15:00;8.9;;;5.4;;
69706;SDS011;56975;55.726;37.566;2023-07-13T23:20:00;11.5;;;5.4;;
69706;SDS011;56975;55.726;37.566;2023-07-13T23:25:00;9.3;;;5.1;;
69706;SDS011;56975;55.726;37.566;2023-07-13T23:30:00;10.8;;;5.6;;
69706;SDS011;56975;55.726;37.566;2023-07-13T23:35:00;9.3;;;5.6;;
69706;SDS011;56975;55.726;37.566;2023-07-13T23:40:00;8.8;;;5.3;;
69706;SDS011;56975;55.726;37.566;2023-07-13T23:45:00;10.0;;;5.6;;
69706;SDS011;56975;55.726;37.566;2023-07-13T23:50:00;8.1;;;5.3;;
69706;SDS011;56975;55.726;37.566;2023-07-13T23:55:00;9.3;;;5.7;;
